Time;durP1;ratioP1;P1;durP2;ratioP2;P2;SDS_P1;SDS_P2;PMS_P1;PMS_P2;Temp;Humidity;BMP_temperature;BMP_pressure;BME280_temperature;BME280_humidity;BME280_pressure;Samples;Min_cycle;Max_cycle;Signal;HPM_P1;HPM_P2
2023/08/10 00:00:24;;;;;;;6.70;2.92;;;13.90;99.90;;;;;;5063944;28;20039;-75
2023/08/10 00:02:55;;;;;;;5.88;2.92;;;13.90;99.90;;;;;;5061580;28;20129;-75
2023/08/10 00:05:20;;;;;;;;;;;13.90;99.90;;;;;;5075086;28;20911;-75
2023/08/10 00:07:46;;;;;;;7.07;2.72;;;13.90;99.90;;;;;;5063981;28;20024;-75
2023/08/10 00:10:12;;;;;;;5.90;2.40;;;13.90;99.90;;;;;;5062630;28;20044;-75
2023/08/10 00:12:47;;;;;;;7.30;2.53;;;13.90;99.90;;;;;;5066012;28;20044;-75
2023/08/10 00:15:12;;;;;;;8.95;3.15;;;13.90;99.90;;;;;;5078792;28;20052;-75
2023/08/10 00:17:44;;;;;;;8.52;3.55;;;13.90;99.90;;;;;;5080835;28;20051;-74
2023/08/10 00:20:11;;;;;;;6.82;2.95;;;13.90;99.90;;;;;;5062867;28;20178;-74
2023/08/10 00:22:40;;;;;;;5.97;2.72;;;13.80;99.90;;;;;;5062939;28;20039;-75
2023/08/10 00:25:07;;;;;;;6.85;2.80;;;13.90;99.90;;;;;;5081721;28;20090;-74
2023/08/10 00:27:35;;;;;;;6.93;2.60;;;13.80;99.90;;;;;;5061243;28;20459;-75
2023/08/10 00:30:01;;;;;;;8.98;3.78;;;13.80;99.90;;;;;;5081253;28;20565;-75
2023/08/10 00:32:26;;;;;;;8.43;3.33;;;13.70;99.90;;;;;;5063887;28;20123;-74
2023/08/10 00:34:52;;;;;;;7.43;3.03;;;13.80;99.90;;;;;;5063599;28;20903;-74
2023/08/10 00:37:18;;;;;;;5.95;2.35;;;13.70;99.90;;;;;;5079979;28;20036;-75
2023/08/10 00:39:44;;;;;;;6.70;3.30;;;13.70;99.90;;;;;;5078523;28;20036;-75
2023/08/10 00:42:10;;;;;;;7.90;3.30;;;13.70;99.90;;;;;;5072162;28;20044;-75
2023/08/10 00:44:36;;;;;;;9.50;3.65;;;13.70;99.90;;;;;;5081552;28;20032;-75
2023/08/10 00:47:01;;;;;;;7.47;3.30;;;13.60;99.90;;;;;;5080483;28;20044;-75
2023/08/10 00:49:27;;;;;;;6.40;3.05;;;13.60;99.90;;;;;;5079184;28;20077;-75
2023/08/10 00:51:53;;;;;;;6.95;2.70;;;13.60;99.90;;;;;;5062901;28;20036;-75
2023/08/10 00:54:19;;;;;;;4.68;2.80;;;13.50;99.90;;;;;;5065502;28;20372;-75
2023/08/10 00:56:45;;;;;;;6.85;2.92;;;13.50;99.90;;;;;;5065818;28;20104;-75
2023/08/10 00:59:11;;;;;;;5.03;2.45;;;13.50;99.90;;;;;;5082339;28;20126;-75
2023/08/10 01:01:37;;;;;;;5.38;2.58;;;13.50;99.90;;;;;;5066820;28;20032;-76
2023/08/10 01:04:02;;;;;;;9.55;3.78;;;13.50;99.90;;;;;;5064300;28;20463;-75
2023/08/10 01:06:44;;;;;;;9.07;3.90;;;13.50;99.90;;;;;;5083759;28;20130;-76
2023/08/10 01:09:14;;;;;;;6.40;3.20;;;13.40;99.90;;;;;;5083085;28;20050;-74
2023/08/10 01:11:55;;;;;;;5.07;3.22;;;13.40;99.90;;;;;;5083526;28;20069;-75
2023/08/10 01:14:34;;;;;;;8.98;3.75;;;13.40;99.90;;;;;;5083809;28;20266;-75
2023/08/10 01:17:01;;;;;;;6.65;2.85;;;13.40;99.90;;;;;;5071498;28;20212;-75
2023/08/10 01:19:43;;;;;;;5.10;3.10;;;13.40;99.90;;;;;;5083602;28;20390;-75
2023/08/10 01:22:25;;;;;;;7.00;3.03;;;13.30;99.90;;;;;;5087937;28;20101;-75
2023/08/10 01:25:14;;;;;;;7.60;3.45;;;13.30;99.90;;;;;;5102811;28;20134;-74
2023/08/10 01:27:44;;;;;;;7.45;2.90;;;13.30;99.90;;;;;;5070254;28;20052;-75
2023/08/10 01:30:11;;;;;;;8.90;3.95;;;13.20;99.90;;;;;;5065928;28;20044;-74
2023/08/10 01:32:37;;;;;;;8.38;3.67;;;13.20;99.90;;;;;;5082388;28;20079;-74
2023/08/10 01:35:06;;;;;;;6.70;3.63;;;13.20;99.90;;;;;;5064276;28;20090;-74
2023/08/10 01:37:33;;;;;;;7.97;4.30;;;13.20;99.90;;;;;;5078844;28;20132;-74
2023/08/10 01:39:59;;;;;;;8.88;3.25;;;13.10;99.90;;;;;;5063947;28;20126;-74
2023/08/10 01:42:25;;;;;;;6.80;3.33;;;13.10;99.90;;;;;;5060409;28;20517;-74
2023/08/10 01:44:52;;;;;;;7.30;2.85;;;13.00;99.90;;;;;;5081237;28;20440;-74
2023/08/10 01:47:33;;;;;;;4.90;2.30;;;13.00;99.90;;;;;;5066077;28;20490;-75
2023/08/10 01:50:02;;;;;;;4.13;2.45;;;12.90;99.90;;;;;;5079354;28;20158;-75
2023/08/10 01:52:33;;;;;;;6.25;3.42;;;12.90;99.90;;;;;;5096234;27;20486;-75
2023/08/10 01:54:59;;;;;;;6.50;2.80;;;12.90;99.90;;;;;;5078466;28;20090;-75
2023/08/10 01:57:28;;;;;;;7.60;3.33;;;12.90;99.90;;;;;;5080732;28;20062;-75
2023/08/10 01:59:54;;;;;;;8.05;3.45;;;12.80;99.90;;;;;;5096432;27;20063;-75
2023/08/10 02:02:20;;;;;;;7.50;3.90;;;12.80;99.90;;;;;;5063515;28;20032;-75
2023/08/10 02:04:46;;;;;;;6.68;3.13;;;12.70;99.90;;;;;;5061685;28;20035;-75
2023/08/10 02:07:12;;;;;;;6.07;2.45;;;12.70;99.90;;;;;;5080647;28;20058;-75
2023/08/10 02:09:44;;;;;;;5.53;2.45;;;12.70;99.90;;;;;;5079108;28;20502;-74
2023/08/10 02:12:16;;;;;;;7.05;3.15;;;12.70;99.90;;;;;;5077889;28;20051;-74
2023/08/10 02:14:42;;;;;;;8.77;3.65;;;12.70;99.90;;;;;;5078206;28;20122;-74
2023/08/10 02:17:08;;;;;;;8.60;4.90;;;12.60;99.90;;;;;;5103540;28;20497;-74
2023/08/10 02:19:34;;;;;;;6.38;3.17;;;12.60;99.90;;;;;;5084717;28;20521;-75
2023/08/10 02:22:00;;;;;;;7.97;4.20;;;12.50;99.90;;;;;;5071216;28;20179;-75
2023/08/10 02:24:26;;;;;;;7.25;3.83;;;12.50;99.90;;;;;;5082792;28;20140;-74
2023/08/10 02:26:51;;;;;;;7.25;3.35;;;12.40;99.90;;;;;;5086936;28;20044;-74
2023/08/10 02:29:17;;;;;;;6.65;3.33;;;12.40;99.90;;;;;;5084796;28;20138;-74
2023/08/10 02:31:44;;;;;;;7.60;4.85;;;12.30;99.90;;;;;;5084224;28;20036;-74
2023/08/10 02:34:09;;;;;;;10.52;4.97;;;12.30;99.90;;;;;;5085736;28;20123;-74
2023/08/10 02:36:43;;;;;;;14.32;5.18;;;12.30;99.90;;;;;;5087851;28;20165;-74
2023/08/10 02:39:09;;;;;;;7.30;4.30;;;12.30;99.90;;;;;;5118960;27;20042;-75
2023/08/10 02:41:35;;;;;;;5.97;4.00;;;12.30;99.90;;;;;;5071319;28;20039;-74
2023/08/10 02:44:01;;;;;;;7.10;4.00;;;12.30;99.90;;;;;;5115630;27;20084;-74
2023/08/10 02:46:27;;;;;;;7.10;4.50;;;12.30;99.90;;;;;;5086059;27;20079;-74
2023/08/10 02:48:53;;;;;;;6.05;4.20;;;12.30;99.90;;;;;;5102046;28;20047;-74
2023/08/10 02:51:20;;;;;;;5.57;3.33;;;12.30;99.90;;;;;;5063089;28;20555;-75
2023/08/10 02:53:49;;;;;;;5.72;4.28;;;12.30;99.90;;;;;;5068418;28;20070;-74
2023/08/10 02:56:14;;;;;;;12.85;5.05;;;12.40;99.90;;;;;;5080412;28;20147;-74
2023/08/10 02:58:40;;;;;;;9.20;5.30;;;12.30;99.90;;;;;;5099977;28;20892;-74
2023/08/10 03:01:09;;;;;;;9.55;4.55;;;12.40;99.90;;;;;;5084597;28;20450;-74
2023/08/10 03:03:35;;;;;;;9.43;5.20;;;12.40;99.90;;;;;;5086149;28;20031;-75
2023/08/10 03:06:04;;;;;;;10.20;5.90;;;12.40;99.90;;;;;;5086304;28;20054;-74
2023/08/10 03:08:30;;;;;;;9.63;5.17;;;12.50;99.90;;;;;;5117566;27;20046;-74
2023/08/10 03:10:56;;;;;;;9.75;5.63;;;12.40;99.90;;;;;;5068866;28;20138;-74
2023/08/10 03:13:21;;;;;;;7.05;4.28;;;12.50;99.90;;;;;;5086295;28;20044;-74
2023/08/10 03:15:47;;;;;;;6.15;3.75;;;12.50;99.90;;;;;;5067882;28;20043;-74
2023/08/10 03:18:13;;;;;;;8.10;4.18;;;12.50;99.90;;;;;;5086405;28;20134;-74
2023/08/10 03:20:39;;;;;;;7.15;4.20;;;12.60;99.90;;;;;;5084325;28;20039;-74
2023/08/10 03:23:05;;;;;;;10.60;5.95;;;12.70;99.90;;;;;;5084629;28;20043;-74
2023/08/10 03:25:32;;;;;;;11.35;7.05;;;12.60;99.90;;;;;;5085198;28;20051;-74
2023/08/10 03:27:58;;;;;;;7.00;4.45;;;12.70;99.90;;;;;;5100301;28;20035;-74
2023/08/10 03:30:23;;;;;;;6.18;4.22;;;12.70;99.90;;;;;;5083455;28;20039;-74
2023/08/10 03:32:49;;;;;;;9.75;6.63;;;12.70;99.90;;;;;;5085541;28;20154;-74
2023/08/10 03:35:15;;;;;;;6.72;4.32;;;12.70;99.90;;;;;;5081103;28;20096;-74
2023/08/10 03:37:41;;;;;;;11.45;5.78;;;12.80;99.90;;;;;;5085301;28;20096;-74
2023/08/10 03:40:08;;;;;;;8.23;4.55;;;12.80;99.90;;;;;;5080460;28;20541;-74
2023/08/10 03:42:34;;;;;;;10.35;6.40;;;12.80;99.90;;;;;;5086951;28;20081;-74
2023/08/10 03:45:00;;;;;;;7.53;5.05;;;12.80;99.90;;;;;;5081618;28;20413;-74
2023/08/10 03:47:25;;;;;;;7.50;4.05;;;12.90;99.90;;;;;;5086715;28;20058;-74
2023/08/10 03:49:51;;;;;;;9.88;6.68;;;12.90;99.90;;;;;;5066586;28;20044;-74
2023/08/10 03:52:20;;;;;;;12.32;7.07;;;12.90;99.90;;;;;;5082855;28;20043;-74
2023/08/10 03:54:47;;;;;;;9.32;5.13;;;12.90;99.90;;;;;;5059934;28;20073;-75
2023/08/10 03:57:13;;;;;;;8.27;5.85;;;12.90;99.90;;;;;;5063936;28;20082;-74
2023/08/10 03:59:39;;;;;;;7.80;5.10;;;13.00;99.90;;;;;;5068439;28;20134;-74
2023/08/10 04:02:10;;;;;;;10.40;6.75;;;13.00;99.90;;;;;;5071608;28;20572;-74
2023/08/10 04:04:36;;;;;;;7.45;5.05;;;13.00;99.90;;;;;;5085462;28;20048;-74
2023/08/10 04:07:02;;;;;;;7.43;4.65;;;13.00;99.90;;;;;;5067194;28;20594;-74
2023/08/10 04:09:28;;;;;;;8.82;5.80;;;13.00;99.90;;;;;;5085623;28;20039;-74
2023/08/10 04:11:53;;;;;;;7.30;5.00;;;13.10;99.90;;;;;;5081219;28;20044;-74
2023/08/10 04:14:19;;;;;;;5.85;4.85;;;13.10;99.90;;;;;;5069302;28;20409;-74
2023/08/10 04:16:45;;;;;;;7.80;5.45;;;13.10;99.90;;;;;;5080575;28;20134;-75
2023/08/10 04:19:11;;;;;;;7.32;5.35;;;13.10;99.90;;;;;;5082140;28;20171;-74
2023/08/10 04:21:36;;;;;;;7.60;5.05;;;13.20;99.90;;;;;;5084128;28;20028;-75
2023/08/10 04:24:02;;;;;;;5.68;5.07;;;13.20;99.90;;;;;;5115863;27;20096;-74
2023/08/10 04:26:28;;;;;;;8.20;5.95;;;13.20;99.90;;;;;;5083932;28;20051;-74
2023/08/10 04:28:54;;;;;;;10.68;7.35;;;13.20;99.90;;;;;;5084601;28;20044;-74
2023/08/10 04:31:19;;;;;;;7.50;5.32;;;13.30;99.90;;;;;;5084001;28;20051;-75
2023/08/10 04:33:46;;;;;;;8.23;6.20;;;13.30;99.90;;;;;;5083707;28;20088;-74
2023/08/10 04:36:11;;;;;;;8.55;5.78;;;13.30;99.90;;;;;;5082832;28;20048;-74
2023/08/10 04:38:37;;;;;;;10.02;5.28;;;13.30;99.90;;;;;;5082248;28;20104;-74
2023/08/10 04:41:06;;;;;;;5.43;4.32;;;13.30;99.90;;;;;;5064295;28;20043;-75
2023/08/10 04:43:31;;;;;;;8.95;5.88;;;13.30;99.90;;;;;;5117318;27;20031;-75
2023/08/10 04:45:57;;;;;;;8.05;5.47;;;13.30;99.90;;;;;;5079502;28;20571;-75
2023/08/10 04:48:23;;;;;;;10.95;5.90;;;13.40;99.90;;;;;;5065171;28;20027;-75
2023/08/10 04:50:49;;;;;;;8.57;5.70;;;13.40;99.90;;;;;;5083680;28;20060;-74
2023/08/10 04:53:14;;;;;;;5.90;4.70;;;13.40;99.90;;;;;;5083762;28;20673;-74
2023/08/10 04:55:40;;;;;;;8.88;4.75;;;13.50;99.90;;;;;;5085040;28;20472;-74
2023/08/10 04:58:06;;;;;;;6.43;4.70;;;13.50;99.90;;;;;;5113585;27;20593;-74
2023/08/10 05:00:32;;;;;;;9.95;4.95;;;13.50;99.90;;;;;;5081651;28;20071;-75
2023/08/10 05:02:58;;;;;;;8.68;4.57;;;13.60;99.90;;;;;;5066605;28;20464;-75
2023/08/10 05:05:23;;;;;;;6.47;4.43;;;13.60;99.90;;;;;;5082684;28;20068;-75
2023/08/10 05:07:49;;;;;;;6.68;4.30;;;13.60;99.90;;;;;;5066003;28;20043;-75
2023/08/10 05:10:15;;;;;;;8.82;4.38;;;13.70;99.90;;;;;;5083798;28;20035;-74
2023/08/10 05:12:41;;;;;;;8.13;4.43;;;13.70;99.90;;;;;;5083445;28;20057;-75
2023/08/10 05:15:10;;;;;;;5.90;4.07;;;13.70;99.90;;;;;;5080947;28;20547;-75
2023/08/10 05:17:39;;;;;;;6.85;4.93;;;13.70;99.90;;;;;;5067608;28;20054;-74
2023/08/10 05:20:12;;;;;;;7.85;5.32;;;13.80;99.90;;;;;;5066019;28;20980;-75
2023/08/10 05:22:41;;;;;;;7.82;6.10;;;13.80;99.90;;;;;;5084590;28;20963;-75
2023/08/10 05:25:10;;;;;;;7.35;5.00;;;13.80;99.90;;;;;;5085749;28;20127;-75
2023/08/10 05:27:40;;;;;;;5.65;4.70;;;13.80;99.90;;;;;;5081663;28;20077;-75
2023/08/10 05:30:11;;;;;;;8.15;4.22;;;13.80;99.90;;;;;;5078877;28;20043;-75
2023/08/10 05:32:43;;;;;;;9.80;5.07;;;13.90;99.90;;;;;;5061586;28;20088;-75
2023/08/10 05:35:10;;;;;;;6.55;4.50;;;13.90;99.90;;;;;;5083348;28;20522;-75
2023/08/10 05:37:36;;;;;;;7.28;4.70;;;13.90;99.90;;;;;;5067100;28;20069;-75
2023/08/10 05:40:09;;;;;;;8.00;4.80;;;13.90;99.90;;;;;;5065229;28;20362;-76
2023/08/10 05:42:43;;;;;;;9.23;5.10;;;13.90;99.90;;;;;;5081795;28;20047;-75
2023/08/10 05:45:14;;;;;;;7.97;4.90;;;13.90;99.90;;;;;;5062946;28;20394;-75
2023/08/10 05:47:42;;;;;;;8.20;4.60;;;14.00;99.90;;;;;;5084529;28;20557;-77
2023/08/10 05:50:11;;;;;;;8.73;5.60;;;14.00;99.90;;;;;;5080198;28;20067;-75
2023/08/10 05:52:40;;;;;;;7.45;5.78;;;14.10;99.90;;;;;;5084712;28;20390;-75
2023/08/10 05:55:06;;;;;;;9.50;6.50;;;14.10;99.90;;;;;;5062777;28;20075;-75
2023/08/10 05:57:32;;;;;;;8.55;5.53;;;14.10;99.90;;;;;;5084769;28;20054;-75
2023/08/10 05:59:58;;;;;;;8.10;5.30;;;14.20;99.90;;;;;;5068767;28;20467;-75
2023/08/10 06:02:23;;;;;;;10.10;5.57;;;14.20;99.90;;;;;;5084259;28;20063;-75
2023/08/10 06:04:52;;;;;;;8.48;5.28;;;14.20;99.90;;;;;;5070795;28;20522;-74
2023/08/10 06:07:18;;;;;;;14.32;5.28;;;14.40;99.90;;;;;;5068896;28;20565;-74
2023/08/10 06:09:44;;;;;;;8.20;5.95;;;14.40;99.90;;;;;;5083191;28;20126;-75
2023/08/10 06:12:10;;;;;;;8.15;5.13;;;14.40;99.90;;;;;;5084903;28;20093;-76
2023/08/10 06:14:37;;;;;;;8.55;5.05;;;14.40;99.90;;;;;;5088311;28;20051;-75
2023/08/10 06:17:04;;;;;;;8.60;4.82;;;14.50;99.90;;;;;;5121228;27;20805;-75
2023/08/10 06:19:31;;;;;;;8.55;5.15;;;14.60;99.90;;;;;;5087432;28;20043;-75
2023/08/10 06:21:57;;;;;;;9.70;5.90;;;14.60;99.90;;;;;;5083711;28;20093;-75
2023/08/10 06:24:22;;;;;;;11.40;5.60;;;14.70;99.90;;;;;;5085009;28;20035;-76
2023/08/10 06:27:09;;;;;;;7.97;5.05;;;14.80;99.90;;;;;;5067438;28;20048;-74
2023/08/10 06:29:35;;;;;;;11.63;4.57;;;14.80;99.90;;;;;;5086738;28;20127;-75
2023/08/10 06:32:05;;;;;;;12.15;5.45;;;14.90;99.90;;;;;;5067402;28;20035;-75
2023/08/10 06:34:30;;;;;;;8.23;4.72;;;15.00;99.90;;;;;;5085635;28;20288;-75
2023/08/10 06:36:57;;;;;;;9.15;5.05;;;15.00;99.90;;;;;;5066700;27;20625;-75
2023/08/10 06:39:23;;;;;;;6.45;4.38;;;15.20;99.90;;;;;;5069388;28;20079;-75
2023/08/10 06:41:49;;;;;;;11.45;4.47;;;15.20;99.90;;;;;;5067425;28;20067;-74
2023/08/10 06:44:18;;;;;;;8.23;4.10;;;15.30;99.90;;;;;;5069031;28;20127;-75
2023/08/10 06:46:43;;;;;;;7.97;3.80;;;15.40;99.90;;;;;;5083712;28;20443;-75
2023/08/10 06:49:09;;;;;;;7.07;4.13;;;15.50;99.90;;;;;;5083173;28;20036;-75
2023/08/10 06:51:35;;;;;;;8.57;3.35;;;15.50;99.90;;;;;;5068679;28;20036;-75
2023/08/10 06:54:01;;;;;;;7.47;3.17;;;15.60;99.90;;;;;;5084127;28;20040;-75
2023/08/10 06:56:27;;;;;;;6.28;2.70;;;15.60;99.90;;;;;;5067305;28;20088;-75
2023/08/10 06:58:53;;;;;;;5.50;2.60;;;15.60;99.90;;;;;;5067879;28;20494;-74
2023/08/10 07:01:18;;;;;;;6.07;2.70;;;15.70;99.90;;;;;;5087544;28;20035;-75
2023/08/10 07:03:44;;;;;;;7.45;2.15;;;15.70;99.90;;;;;;5118129;27;20523;-75
2023/08/10 07:06:10;;;;;;;5.90;2.25;;;15.80;99.90;;;;;;5079890;28;20040;-75
2023/08/10 07:08:36;;;;;;;7.70;2.30;;;15.90;99.90;;;;;;5085123;28;20128;-74
2023/08/10 07:11:03;;;;;;;6.93;1.65;;;15.90;99.90;;;;;;5079661;28;20063;-74
2023/08/10 07:13:29;;;;;;;5.45;1.95;;;15.90;99.90;;;;;;5120174;27;20043;-75
2023/08/10 07:15:55;;;;;;;9.20;2.17;;;15.90;99.90;;;;;;5081944;28;20097;-75
2023/08/10 07:18:20;;;;;;;9.85;2.75;;;16.00;99.90;;;;;;5084052;28;20055;-76
2023/08/10 07:20:46;;;;;;;4.75;2.08;;;16.00;99.90;;;;;;5082892;28;20126;-76
2023/08/10 07:23:17;;;;;;;6.15;1.50;;;16.10;99.90;;;;;;5101915;28;20498;-75
2023/08/10 07:25:45;;;;;;;4.40;1.70;;;16.20;99.90;;;;;;5083639;28;20055;-75
2023/08/10 07:28:11;;;;;;;4.18;1.88;;;16.30;99.90;;;;;;5082536;28;20105;-75
2023/08/10 07:30:37;;;;;;;5.43;1.80;;;16.50;99.90;;;;;;5071457;28;20044;-75
2023/08/10 07:33:06;;;;;;;5.18;1.48;;;16.60;99.90;;;;;;5067149;28;20036;-75
2023/08/10 07:35:32;;;;;;;5.32;1.42;;;16.70;99.90;;;;;;5084603;28;20123;-76
2023/08/10 07:37:58;;;;;;;3.65;1.33;;;16.90;99.90;;;;;;5102187;27;20158;-76
2023/08/10 07:40:24;;;;;;;5.40;1.40;;;17.00;99.90;;;;;;5085023;28;20485;-75
2023/08/10 07:42:50;;;;;;;6.38;1.30;;;17.10;99.90;;;;;;5084948;28;20085;-75
2023/08/10 07:45:16;;;;;;;8.88;1.88;;;17.20;99.90;;;;;;5066785;28;20044;-74
2023/08/10 07:47:41;;;;;;;6.22;1.50;;;17.20;99.90;;;;;;5118246;27;20398;-75
2023/08/10 07:50:11;;;;;;;4.60;1.38;;;17.30;99.90;;;;;;5061862;28;20043;-75
2023/08/10 07:52:36;;;;;;;5.18;1.67;;;17.30;99.90;;;;;;5085177;28;20394;-75
2023/08/10 07:55:02;;;;;;;6.18;1.30;;;17.30;99.90;;;;;;5066513;28;20084;-75
2023/08/10 07:57:30;;;;;;;5.15;1.55;;;17.40;99.90;;;;;;5066062;28;20083;-75
2023/08/10 07:59:56;;;;;;;5.53;1.50;;;17.40;99.90;;;;;;5082966;28;20389;-75
2023/08/10 08:02:22;;;;;;;4.57;1.40;;;17.50;99.90;;;;;;5064849;28;20144;-75
2023/08/10 08:04:48;;;;;;;4.93;1.40;;;17.60;99.90;;;;;;5085360;28;20044;-75
2023/08/10 08:07:13;;;;;;;4.85;1.67;;;17.60;99.90;;;;;;5083110;28;20051;-75
2023/08/10 08:09:39;;;;;;;4.68;1.30;;;17.60;99.90;;;;;;5077061;28;20505;-75
2023/08/10 08:12:05;;;;;;;4.20;1.17;;;17.60;99.90;;;;;;5111389;27;20109;-75
2023/08/10 08:14:31;;;;;;;4.35;1.40;;;17.60;99.90;;;;;;5068009;28;20051;-75
2023/08/10 08:16:57;;;;;;;6.78;1.45;;;17.70;99.90;;;;;;5066340;28;20055;-75
2023/08/10 08:19:22;;;;;;;5.22;1.30;;;17.70;99.90;;;;;;5082633;28;20043;-74
2023/08/10 08:21:48;;;;;;;6.40;1.77;;;17.60;99.90;;;;;;5084211;28;20119;-75
2023/08/10 08:24:14;;;;;;;3.25;1.10;;;17.60;99.90;;;;;;5065056;28;20047;-76
2023/08/10 08:26:40;;;;;;;6.10;1.30;;;17.70;99.90;;;;;;5082251;28;20032;-75
2023/08/10 08:29:06;;;;;;;3.58;1.55;;;17.60;99.90;;;;;;5065828;28;20093;-77
2023/08/10 08:31:33;;;;;;;5.40;1.20;;;17.60;99.90;;;;;;5051909;28;20043;-75
2023/08/10 08:33:59;;;;;;;4.22;1.30;;;17.60;99.90;;;;;;5115968;27;20127;-75
2023/08/10 08:36:25;;;;;;;3.05;1.30;;;17.70;99.90;;;;;;5071536;28;20082;-76
2023/08/10 08:38:54;;;;;;;5.25;1.33;;;17.60;99.90;;;;;;5098178;28;20487;-76
2023/08/10 08:41:22;;;;;;;3.30;0.90;;;17.70;99.90;;;;;;5081570;28;20052;-74
2023/08/10 08:43:49;;;;;;;6.22;1.25;;;17.60;99.90;;;;;;5065850;28;20730;-75
2023/08/10 08:46:20;;;;;;;3.88;0.95;;;17.60;99.90;;;;;;5082175;28;20398;-75
2023/08/10 08:48:46;;;;;;;6.70;1.38;;;17.60;99.90;;;;;;5083772;28;20054;-75
2023/08/10 08:51:12;;;;;;;7.88;1.70;;;17.60;99.90;;;;;;5082341;28;20065;-75
2023/08/10 08:53:39;;;;;;;6.50;1.30;;;17.60;99.90;;;;;;5066845;28;20432;-75
2023/08/10 08:56:05;;;;;;;5.53;1.23;;;17.60;99.90;;;;;;5077039;28;20566;-75
2023/08/10 08:58:31;;;;;;;5.60;1.35;;;17.60;99.90;;;;;;5076855;28;20115;-75
2023/08/10 09:00:57;;;;;;;3.78;1.20;;;17.60;99.90;;;;;;5064151;28;20044;-75
2023/08/10 09:03:24;;;;;;;4.13;1.35;;;17.60;99.90;;;;;;5080776;28;20051;-74
2023/08/10 09:05:51;;;;;;;3.45;1.00;;;17.50;99.90;;;;;;5064763;28;20048;-75
2023/08/10 09:08:18;;;;;;;5.40;1.20;;;17.50;99.90;;;;;;5078824;28;20036;-75
2023/08/10 09:10:45;;;;;;;4.50;1.35;;;17.50;99.90;;;;;;5063481;28;20494;-75
2023/08/10 09:13:21;;;;;;;7.13;1.40;;;17.50;99.90;;;;;;5064581;28;20044;-74
2023/08/10 09:16:02;;;;;;;6.82;1.38;;;17.50;99.90;;;;;;5062169;28;20101;-75
2023/08/10 09:18:36;;;;;;;3.22;1.55;;;17.50;99.90;;;;;;5080673;28;20044;-75
2023/08/10 09:21:15;;;;;;;3.55;1.42;;;17.50;99.90;;;;;;5078956;28;20055;-74
2023/08/10 09:23:42;;;;;;;4.75;1.50;;;17.50;99.90;;;;;;5061299;28;20056;-76
2023/08/10 09:26:10;;;;;;;7.18;1.48;;;17.50;99.90;;;;;;5078095;28;20047;-76
2023/08/10 09:28:39;;;;;;;3.95;0.90;;;17.50;99.90;;;;;;5080720;28;20044;-76
2023/08/10 09:31:09;;;;;;;5.40;1.15;;;17.50;99.90;;;;;;5071865;28;20119;-76
2023/08/10 09:33:39;;;;;;;;;;;17.40;99.90;;;;;;5083223;28;20473;-76
2023/08/10 09:36:07;;;;;;;4.68;1.52;;;17.40;99.90;;;;;;5066976;28;19928;-76
2023/08/10 09:38:33;;;;;;;4.38;1.20;;;17.40;99.90;;;;;;5066643;28;20054;-75
2023/08/10 09:41:25;;;;;;;5.60;1.40;;;17.40;99.90;;;;;;5096771;27;20044;-75
2023/08/10 09:43:54;;;;;;;4.40;1.10;;;17.40;99.90;;;;;;5063774;28;20056;-76
2023/08/10 09:46:20;;;;;;;6.30;1.50;;;17.40;99.90;;;;;;5064744;28;20052;-76
2023/08/10 09:48:48;;;;;;;4.47;1.27;;;17.40;99.90;;;;;;5083558;28;20040;-75
2023/08/10 09:51:14;;;;;;;6.20;1.65;;;17.50;99.90;;;;;;5066335;28;20048;-74
2023/08/10 09:53:41;;;;;;;6.88;1.83;;;17.40;99.90;;;;;;5082774;28;20036;-75
2023/08/10 09:56:07;;;;;;;4.25;1.27;;;17.50;99.90;;;;;;5084840;28;20078;-75
2023/08/10 09:58:42;;;;;;;5.05;1.50;;;17.50;99.90;;;;;;5082930;28;20071;-75
2023/08/10 10:01:10;;;;;;;4.85;1.63;;;17.50;99.90;;;;;;5064232;28;20131;-75
2023/08/10 10:03:36;;;;;;;6.10;1.77;;;17.50;99.90;;;;;;5080752;28;20162;-75
2023/08/10 10:06:02;;;;;;;6.13;1.75;;;17.50;99.90;;;;;;5066064;28;20039;-74
2023/08/10 10:08:30;;;;;;;6.30;1.65;;;17.50;99.90;;;;;;5064838;28;20630;-75
2023/08/10 10:11:04;;;;;;;3.80;1.27;;;17.50;99.90;;;;;;5064638;28;20550;-75
2023/08/10 10:13:30;;;;;;;6.55;1.77;;;17.50;99.90;;;;;;5066922;28;20047;-75
2023/08/10 10:15:56;;;;;;;7.35;2.00;;;17.50;99.90;;;;;;5063389;28;20048;-74
2023/08/10 10:18:23;;;;;;;6.15;1.85;;;17.50;99.90;;;;;;5084242;28;20044;-75
2023/08/10 10:20:50;;;;;;;6.00;1.48;;;17.50;99.90;;;;;;5067501;28;20055;-75
2023/08/10 10:23:19;;;;;;;5.57;1.50;;;17.50;99.90;;;;;;5084400;28;20417;-75
2023/08/10 10:25:58;;;;;;;7.15;2.03;;;17.50;99.90;;;;;;5081422;28;20620;-75
2023/08/10 10:28:23;;;;;;;6.07;2.00;;;17.50;99.90;;;;;;5065054;28;20054;-75
2023/08/10 10:30:55;;;;;;;4.82;1.90;;;17.50;99.90;;;;;;5064527;28;20032;-75
2023/08/10 10:33:23;;;;;;;7.57;2.55;;;17.40;99.90;;;;;;5085896;28;20602;-75
2023/08/10 10:36:10;;;;;;;6.72;1.85;;;17.50;99.90;;;;;;5083878;28;20040;-74
2023/08/10 10:38:50;;;;;;;4.93;1.80;;;17.50;99.90;;;;;;5065560;28;20044;-75
2023/08/10 10:41:39;;;;;;;7.40;2.38;;;17.50;99.90;;;;;;5084856;28;20629;-75
2023/08/10 10:44:06;;;;;;;9.05;2.58;;;17.60;99.90;;;;;;5114708;27;20044;-75
2023/08/10 10:46:31;;;;;;;5.97;1.88;;;17.60;99.90;;;;;;5082038;28;20070;-75
2023/08/10 10:49:04;;;;;;;5.22;1.50;;;17.60;99.90;;;;;;5082342;28;20036;-75
2023/08/10 10:51:30;;;;;;;6.47;2.00;;;17.60;99.90;;;;;;5066880;28;20467;-75
2023/08/10 10:53:58;;;;;;;5.82;1.67;;;17.60;99.90;;;;;;5082220;28;20075;-75
2023/08/10 10:56:27;;;;;;;5.97;1.70;;;17.70;99.90;;;;;;5064963;28;20044;-75
2023/08/10 10:58:53;;;;;;;5.97;1.73;;;17.70;99.90;;;;;;5067028;28;20040;-74
2023/08/10 11:01:20;;;;;;;4.88;1.83;;;17.70;99.90;;;;;;5065209;28;20340;-75
2023/08/10 11:03:53;;;;;;;8.40;2.13;;;17.70;99.90;;;;;;5066162;28;20058;-75
2023/08/10 11:06:20;;;;;;;4.70;1.70;;;17.70;99.90;;;;;;5064766;28;20102;-74
2023/08/10 11:08:51;;;;;;;5.55;1.63;;;17.70;99.90;;;;;;5066370;28;20071;-75
2023/08/10 11:11:17;;;;;;;3.88;1.65;;;17.70;99.90;;;;;;5066235;28;20086;-75
2023/08/10 11:13:43;;;;;;;6.95;1.95;;;17.70;99.90;;;;;;5066164;28;20535;-74
2023/08/10 11:16:09;;;;;;;6.15;2.15;;;17.70;99.90;;;;;;5063540;28;20097;-75
2023/08/10 11:18:41;;;;;;;5.40;1.63;;;17.80;99.90;;;;;;5081142;28;20048;-75
2023/08/10 11:21:08;;;;;;;4.78;1.80;;;17.80;99.90;;;;;;5079626;28;20518;-74
2023/08/10 11:23:44;;;;;;;7.05;2.30;;;17.80;99.90;;;;;;5081154;28;20176;-75
2023/08/10 11:26:11;;;;;;;6.35;2.20;;;17.90;99.90;;;;;;5081370;28;20646;-75
2023/08/10 11:28:40;;;;;;;5.63;2.40;;;18.00;99.90;;;;;;5064028;28;20036;-74
2023/08/10 11:31:09;;;;;;;5.78;2.70;;;18.00;99.90;;;;;;5065799;28;20494;-75
2023/08/10 11:33:36;;;;;;;5.65;2.30;;;18.10;99.90;;;;;;5061236;28;20109;-75
2023/08/10 11:36:02;;;;;;;8.88;2.47;;;18.10;99.90;;;;;;5081562;28;20145;-75
2023/08/10 11:38:27;;;;;;;6.53;2.60;;;18.30;99.90;;;;;;5082144;28;20882;-74
2023/08/10 11:40:57;;;;;;;9.73;4.65;;;18.30;99.90;;;;;;5082448;28;20517;-74
2023/08/10 11:43:25;;;;;;;7.93;3.10;;;18.40;99.90;;;;;;5062385;28;20048;-75
2023/08/10 11:45:53;;;;;;;6.03;2.58;;;18.40;99.90;;;;;;5067765;28;20039;-75
2023/08/10 11:48:19;;;;;;;7.20;2.88;;;18.50;99.90;;;;;;5064436;28;20047;-74
2023/08/10 11:50:45;;;;;;;7.60;2.70;;;18.60;99.90;;;;;;5063174;28;20044;-75
2023/08/10 11:53:21;;;;;;;5.90;2.50;;;18.80;99.90;;;;;;5080246;28;20051;-75
2023/08/10 11:55:49;;;;;;;7.35;3.70;;;18.90;99.90;;;;;;5082547;28;20059;-75
2023/08/10 11:58:17;;;;;;;7.28;2.67;;;19.00;99.90;;;;;;5082526;28;20506;-75
2023/08/10 12:00:47;;;;;;;8.50;2.78;;;19.20;99.90;;;;;;5102261;28;20787;-75
2023/08/10 12:03:27;;;;;;;7.82;2.80;;;19.30;99.90;;;;;;5084085;28;20134;-75
2023/08/10 12:05:59;;;;;;;6.63;2.42;;;19.40;99.90;;;;;;5064569;28;20047;-75
2023/08/10 12:08:29;;;;;;;7.07;2.70;;;19.50;99.90;;;;;;5100124;28;20047;-75
2023/08/10 12:11:08;;;;;;;6.53;2.50;;;19.60;99.90;;;;;;5066567;28;20313;-75
2023/08/10 12:13:48;;;;;;;6.43;2.40;;;19.80;99.90;;;;;;5118328;27;20055;-74
2023/08/10 12:16:17;;;;;;;6.55;2.50;;;19.90;99.90;;;;;;5083641;28;20091;-75
2023/08/10 12:18:43;;;;;;;8.57;2.33;;;20.00;99.90;;;;;;5083519;28;20067;-76
2023/08/10 12:21:09;;;;;;;4.60;2.80;;;20.00;99.90;;;;;;5117127;27;20051;-76
2023/08/10 12:23:35;;;;;;;6.05;2.80;;;20.00;99.90;;;;;;5085454;28;20621;-76
2023/08/10 12:26:01;;;;;;;4.40;2.22;;;20.00;99.90;;;;;;5082556;28;20533;-76
2023/08/10 12:28:26;;;;;;;5.93;3.03;;;19.90;99.90;;;;;;5070113;28;20039;-76
2023/08/10 12:30:52;;;;;;;4.45;2.30;;;19.90;99.90;;;;;;5084565;28;20058;-76
2023/08/10 12:33:19;;;;;;;6.80;2.75;;;19.90;99.90;;;;;;5081213;28;20043;-76
2023/08/10 12:35:45;;;;;;;5.78;3.17;;;19.80;99.90;;;;;;5101566;28;20040;-76
2023/08/10 12:38:11;;;;;;;7.00;2.97;;;19.80;99.90;;;;;;5082106;28;20579;-76
2023/08/10 12:40:40;;;;;;;5.78;2.75;;;19.80;99.90;;;;;;5064820;28;20047;-76
2023/08/10 12:43:06;;;;;;;6.80;3.50;;;19.70;99.90;;;;;;5083529;28;20039;-76
2023/08/10 12:45:32;;;;;;;12.35;3.53;;;19.70;99.90;;;;;;5082031;28;20529;-76
2023/08/10 12:47:59;;;;;;;5.55;3.22;;;19.80;99.90;;;;;;5084767;28;20040;-76